Capitol Logistics 17




RCTP
Taiwan Taoyuan International Airport
Taipei, TW
PANC
Ted Stevens Anchorage International Airport
Anchorage, US

Route Details

Aircraft Information
Primary: Boeing 747-400BCF
Backup: Not Available
Route Data
Distance: 4065nm
Duration: 8h 30m
Recm'd Route: MOLKA M750 MIDAI M750 BUNGU Y81 SYOYU Y809 KAGIS A590 PABBA A590 PASRO A590 HAMND NEELL6
Origin Wx: RCTP 142030Z 05011KT 9999 FEW015 BKN060 20/17 Q1012 NOSIG RMK A2991
Dest. Wx: PANC 141953Z 00000KT 10SM BKN065 04/M02 A2967 RMK AO2 RAE50 SLP050 P0001 T00391022
Notes: